Time;durP1;ratioP1;P1;durP2;ratioP2;P2;SDS_P1;SDS_P2;PMS_P1;PMS_P2;Temp;Humidity;BMP_temperature;BMP_pressure;BME280_temperature;BME280_humidity;BME280_pressure;Samples;Min_cycle;Max_cycle;Signal;HPM_P1;HPM_P2
2022/06/22 00:02:06;;;;;;;2.65;1.15;;;;;;;15.60;56.43;98441.69;4337084;33;20170;-71
2022/06/22 00:04:35;;;;;;;1.70;1.42;;;;;;;15.56;56.46;98437.75;4350313;33;20095;-72
2022/06/22 00:07:12;;;;;;;3.80;1.67;;;;;;;15.52;57.05;98450.50;4350217;33;20425;-72
2022/06/22 00:09:41;;;;;;;1.90;1.30;;;;;;;15.47;57.06;98442.25;4350252;33;20078;-71
2022/06/22 00:12:26;;;;;;;2.87;1.12;;;;;;;15.43;57.15;98447.09;4336950;33;20488;-71
2022/06/22 00:14:56;;;;;;;2.45;1.50;;;;;;;15.39;57.34;98444.97;4350541;33;20583;-72
2022/06/22 00:17:37;;;;;;;1.45;1.30;;;;;;;15.38;57.61;98424.84;4336923;33;20083;-72
2022/06/22 00:20:22;;;;;;;3.50;1.30;;;;;;;15.43;57.37;98423.31;4337073;33;20079;-71
2022/06/22 00:23:14;;;;;;;1.27;1.17;;;;;;;15.47;57.27;98430.91;4350347;33;20096;-72
2022/06/22 00:25:42;;;;;;;2.12;1.50;;;;;;;15.43;57.77;98435.72;4304211;33;20097;-71
2022/06/22 00:28:32;;;;;;;2.53;1.30;;;;;;;15.47;57.63;98439.63;4304095;33;20151;-71
2022/06/22 00:31:03;;;;;;;1.27;1.17;;;;;;;15.48;57.63;98453.66;4292103;33;20088;-71
2022/06/22 00:33:30;;;;;;;3.40;1.60;;;;;;;15.42;57.93;98447.25;4303981;33;20183;-71
2022/06/22 00:36:00;;;;;;;3.28;1.37;;;;;;;15.24;58.10;98447.53;4303922;33;20104;-71
2022/06/22 00:38:31;;;;;;;3.60;1.62;;;;;;;15.07;58.36;98449.47;4304143;33;20092;-71
2022/06/22 00:41:02;;;;;;;1.58;1.12;;;;;;;14.90;58.75;98454.84;4292066;33;20107;-71
2022/06/22 00:43:32;;;;;;;1.87;1.17;;;;;;;14.86;59.34;98455.34;4291448;33;20116;-72
2022/06/22 00:46:00;;;;;;;2.58;1.50;;;;;;;14.78;59.76;98458.03;4303597;33;20109;-71
2022/06/22 00:48:34;;;;;;;1.95;1.30;;;;;;;14.78;59.87;98447.50;4292115;33;20084;-71
2022/06/22 00:51:02;;;;;;;;;;;;;;;14.73;60.15;98443.53;4304320;33;20102;-71
2022/06/22 00:53:43;;;;;;;2.37;1.27;;;;;;;14.58;60.58;98437.31;4303813;33;20436;-71
2022/06/22 00:56:30;;;;;;;3.05;1.50;;;;;;;14.66;60.52;98439.94;4303934;33;20135;-72
2022/06/22 00:59:21;;;;;;;1.73;1.50;;;;;;;14.72;60.52;98444.53;4303776;33;20088;-71
2022/06/22 01:01:54;;;;;;;1.52;1.40;;;;;;;14.67;60.57;98451.31;4306424;33;20088;-71
2022/06/22 01:04:25;;;;;;;2.50;1.65;;;;;;;14.64;61.03;98449.84;4350289;33;20091;-71
2022/06/22 01:07:08;;;;;;;3.17;1.98;;;;;;;14.62;61.19;98454.44;4350069;33;20145;-71
2022/06/22 01:10:25;;;;;;;1.60;1.50;;;;;;;14.54;61.50;98451.81;4337026;33;20087;-71
2022/06/22 01:12:56;;;;;;;1.35;1.23;;;;;;;14.54;61.32;98451.81;4299854;33;20085;-71
2022/06/22 01:15:32;;;;;;;2.72;1.50;;;;;;;14.45;61.65;98452.84;4304148;33;20152;-71
2022/06/22 01:18:12;;;;;;;2.35;1.30;;;;;;;14.41;61.74;98454.16;4303699;33;20151;-71
2022/06/22 01:21:09;;;;;;;4.95;1.40;;;;;;;14.46;61.77;98457.09;4303905;33;20085;-71
2022/06/22 01:24:07;;;;;;;2.17;1.42;;;;;;;14.46;62.02;98451.84;4303703;33;20439;-71
2022/06/22 01:27:24;;;;;;;2.78;1.30;;;;;;;14.48;61.82;98444.59;4303633;33;20107;-71
2022/06/22 01:29:55;;;;;;;1.52;1.30;;;;;;;14.44;62.21;98448.56;4274938;33;20189;-72
2022/06/22 01:32:27;;;;;;;1.65;1.42;;;;;;;14.41;62.28;98447.06;4263009;33;20135;-72
2022/06/22 01:34:57;;;;;;;2.20;1.60;;;;;;;14.35;62.81;98453.03;4274889;33;20116;-72
2022/06/22 01:37:27;;;;;;;3.35;1.50;;;;;;;14.35;62.88;98438.06;4262922;33;20113;-71
2022/06/22 01:39:59;;;;;;;2.78;1.83;;;;;;;14.32;62.99;98437.56;4274817;33;20184;-72
2022/06/22 01:42:43;;;;;;;3.28;1.70;;;;;;;14.29;63.09;98438.75;4263138;33;20097;-71
2022/06/22 01:45:16;;;;;;;2.97;2.05;;;;;;;14.32;63.14;98445.47;4274886;33;20097;-71
2022/06/22 01:47:46;;;;;;;;;;;;;;;14.31;63.24;98446.47;4275109;33;20392;-71
2022/06/22 01:50:33;;;;;;;5.72;2.28;;;;;;;14.31;63.26;98446.47;4311571;33;20511;-71
2022/06/22 01:53:24;;;;;;;3.35;2.17;;;;;;;14.26;63.52;98444.34;4317873;33;20155;-71
2022/06/22 01:55:59;;;;;;;2.37;1.85;;;;;;;14.29;63.58;98433.47;4305939;33;20092;-71
2022/06/22 01:58:52;;;;;;;4.82;2.22;;;;;;;14.32;63.49;98437.56;4332498;33;20112;-71
2022/06/22 02:01:49;;;;;;;3.35;1.70;;;;;;;14.28;63.74;98452.09;4332610;33;20133;-71
2022/06/22 02:04:29;;;;;;;3.37;2.10;;;;;;;14.26;63.94;98452.25;4333813;33;20103;-71
2022/06/22 02:07:45;;;;;;;4.15;2.20;;;;;;;14.29;63.72;98454.53;4349483;33;20102;-71
2022/06/22 02:10:27;;;;;;;;;;;;;;;14.36;63.65;98459.94;4338484;33;20104;-71
2022/06/22 02:12:54;;;;;;;2.83;1.90;;;;;;;14.34;63.60;98448.78;4336262;33;20006;-71
2022/06/22 02:15:39;;;;;;;3.25;1.70;;;;;;;14.38;63.42;98450.91;4349531;33;20091;-71
2022/06/22 02:18:13;;;;;;;2.20;1.65;;;;;;;14.40;63.55;98465.69;4349500;33;20091;-71
2022/06/22 02:20:40;;;;;;;2.47;1.80;;;;;;;14.33;63.82;98476.91;4336076;33;20092;-72
2022/06/22 02:23:23;;;;;;;2.37;1.60;;;;;;;14.37;63.68;98482.69;4349427;33;20091;-71
2022/06/22 02:26:11;;;;;;;3.47;1.70;;;;;;;14.34;63.73;98470.66;4349532;33;20130;-71
2022/06/22 02:28:40;;;;;;;1.90;1.42;;;;;;;14.48;63.31;98470.97;4336174;33;20429;-71
2022/06/22 02:31:08;;;;;;;2.30;1.70;;;;;;;14.47;63.48;98477.22;4349284;33;20146;-71
2022/06/22 02:33:38;;;;;;;2.10;1.80;;;;;;;14.44;63.54;98474.91;4335991;33;20099;-71
2022/06/22 02:36:06;;;;;;;2.17;1.87;;;;;;;14.48;63.49;98478.88;4336054;33;20084;-71
2022/06/22 02:38:34;;;;;;;3.30;1.80;;;;;;;14.53;63.26;98473.91;4349290;33;20121;-71
2022/06/22 02:46:36;;;;;;;1.55;1.45;;;;;;;14.49;63.55;98481.34;4349142;33;20098;-71
2022/06/22 02:49:21;;;;;;;3.72;1.90;;;;;;;14.43;63.66;98486.44;4335972;33;20519;-71
2022/06/22 02:51:48;;;;;;;;;;;;;;;14.42;63.82;98490.91;4336223;33;20126;-71
2022/06/22 02:54:36;;;;;;;2.35;1.67;;;;;;;14.41;63.95;98493.72;4335879;33;19994;-71
2022/06/22 02:57:21;;;;;;;2.35;1.58;;;;;;;14.40;64.23;98498.16;4335777;33;20147;-71
2022/06/22 02:59:49;;;;;;;1.80;1.58;;;;;;;14.35;64.30;98501.31;4348960;33;20123;-71
2022/06/22 03:02:18;;;;;;;2.72;1.40;;;;;;;14.48;63.90;98499.94;4335930;33;20518;-71
2022/06/22 03:04:47;;;;;;;2.00;1.60;;;;;;;14.51;63.85;98515.44;4335713;33;20170;-71
2022/06/22 03:07:14;;;;;;;3.22;1.60;;;;;;;14.51;63.91;98516.25;4335915;33;20100;-71
2022/06/22 03:09:42;;;;;;;2.72;1.60;;;;;;;14.55;64.14;98511.47;4337498;33;20106;-71
2022/06/22 03:12:12;;;;;;;2.25;1.60;;;;;;;14.56;63.95;98507.81;4350794;33;20150;-71
2022/06/22 03:15:01;;;;;;;2.67;1.80;;;;;;;14.53;64.09;98503.72;4350584;33;20079;-71
2022/06/22 03:17:34;;;;;;;2.78;1.45;;;;;;;14.57;64.29;98514.75;4337399;33;20083;-71
2022/06/22 03:20:22;;;;;;;2.28;1.48;;;;;;;14.61;64.33;98502.91;4350710;33;20508;-71
2022/06/22 03:22:52;;;;;;;1.75;1.40;;;;;;;14.86;63.13;98502.81;4337354;33;20163;-71
2022/06/22 03:25:19;;;;;;;1.45;1.35;;;;;;;14.94;62.96;98505.41;4350834;33;20088;-71
2022/06/22 03:27:50;;;;;;;3.50;1.67;;;;;;;14.95;62.47;98512.34;4350568;33;20092;-71
2022/06/22 03:30:23;;;;;;;2.35;1.55;;;;;;;14.96;62.82;98521.91;4337292;33;20155;-71
2022/06/22 03:32:56;;;;;;;6.10;1.90;;;;;;;14.97;62.90;98522.72;4337130;33;20126;-71
2022/06/22 03:35:55;;;;;;;2.97;1.60;;;;;;;14.95;63.28;98512.34;4337318;33;20099;-71
2022/06/22 03:38:30;;;;;;;1.95;1.73;;;;;;;15.07;62.60;98504.88;4337118;33;20438;-71
2022/06/22 03:41:02;;;;;;;3.47;1.40;;;;;;;15.24;62.36;98516.16;4337174;33;20071;-71
2022/06/22 03:43:39;;;;;;;2.92;1.67;;;;;;;15.38;61.58;98514.59;4337408;33;20390;-71
2022/06/22 03:46:13;;;;;;;3.03;1.67;;;;;;;15.63;61.10;98496.78;4350430;33;20095;-72
2022/06/22 03:48:43;;;;;;;1.85;1.60;;;;;;;15.78;60.28;98487.13;4337450;33;20086;-72
2022/06/22 03:51:10;;;;;;;2.40;1.70;;;;;;;16.01;59.51;98494.19;4337194;33;20498;-71
2022/06/22 03:54:07;;;;;;;2.72;1.45;;;;;;;16.21;59.01;98498.97;4350387;33;20105;-72
2022/06/22 03:56:43;;;;;;;1.40;1.30;;;;;;;16.37;58.19;98480.31;4350610;33;20091;-71
2022/06/22 03:59:10;;;;;;;1.90;1.40;;;;;;;16.47;58.50;98478.22;4336919;33;20091;-71
2022/06/22 04:01:40;;;;;;;1.85;1.48;;;;;;;16.54;58.96;98462.44;4350259;33;20083;-72
2022/06/22 04:04:07;;;;;;;7.22;1.70;;;;;;;16.59;58.59;98448.66;4336966;33;20155;-72
2022/06/22 04:06:37;;;;;;;1.35;1.20;;;;;;;16.68;58.64;98461.63;4337011;33;20095;-72
2022/06/22 04:09:11;;;;;;;1.52;1.40;;;;;;;16.84;58.13;98459.75;4337143;33;20087;-72
2022/06/22 04:11:40;;;;;;;;;;;;;;;16.96;58.03;98458.31;4350574;33;20488;-72
2022/06/22 04:17:43;;;;;;;1.48;1.37;;;;;;;17.28;56.88;98466.00;4350293;33;20114;-72
2022/06/22 04:20:50;;;;;;;2.17;1.33;;;;;;;17.41;56.93;98463.47;4336599;33;20095;-72
2022/06/22 04:23:22;;;;;;;1.67;1.37;;;;;;;17.49;56.75;98463.34;4337651;33;20157;-72
2022/06/22 04:25:52;;;;;;;3.72;1.75;;;;;;;17.49;56.21;98449.28;4350141;33;20119;-72
2022/06/22 04:28:19;;;;;;;2.08;1.60;;;;;;;17.51;56.17;98449.91;4336850;33;20133;-72
2022/06/22 04:30:49;;;;;;;1.52;1.33;;;;;;;17.52;56.29;98455.03;4336921;33;20183;-72
2022/06/22 04:33:19;;;;;;;1.95;1.40;;;;;;;17.60;55.67;98469.16;4350130;33;20133;-72
2022/06/22 04:35:58;;;;;;;2.90;1.55;;;;;;;17.51;55.98;98456.03;4349917;33;20103;-72
2022/06/22 04:42:00;;;;;;;2.22;1.65;;;;;;;17.79;55.57;98454.44;4350128;33;20153;-72
2022/06/22 04:44:31;;;;;;;2.42;1.37;;;;;;;18.06;54.54;98469.56;4336995;33;20087;-72
2022/06/22 04:47:21;;;;;;;2.53;1.45;;;;;;;18.21;54.38;98472.12;4350280;33;20083;-72
2022/06/22 04:49:52;;;;;;;2.92;1.40;;;;;;;18.56;54.16;98474.78;4349978;33;20543;-72
2022/06/22 04:52:25;;;;;;;1.67;1.42;;;;;;;18.91;53.12;98474.78;4330728;33;20130;-72
2022/06/22 04:54:56;;;;;;;2.30;1.25;;;;;;;19.14;52.04;98476.28;4337019;33;20102;-72
2022/06/22 04:57:27;;;;;;;1.60;1.50;;;;;;;19.19;50.89;98481.81;4349884;33;20091;-72
2022/06/22 04:59:55;;;;;;;1.40;1.30;;;;;;;19.13;50.49;98488.72;4336542;33;20103;-72
2022/06/22 05:02:26;;;;;;;2.95;1.50;;;;;;;19.16;50.94;98495.47;4350133;33;20091;-72
2022/06/22 05:05:01;;;;;;;2.10;1.23;;;;;;;19.06;50.35;98492.37;4337010;33;20183;-72
2022/06/22 05:07:31;;;;;;;;;;;;;;;19.12;50.00;98505.69;4350117;33;20110;-72
2022/06/22 05:10:08;;;;;;;3.10;1.40;;;;;;;18.92;51.15;98497.63;4350024;33;20388;-72
2022/06/22 05:13:08;;;;;;;4.25;1.55;;;;;;;18.90;50.80;98498.84;4350083;33;20129;-72
2022/06/22 05:15:38;;;;;;;2.85;1.40;;;;;;;19.01;50.25;98508.09;4291464;33;20080;-72
2022/06/22 05:18:20;;;;;;;2.15;1.50;;;;;;;18.94;50.33;98500.91;4303631;33;20367;-72
2022/06/22 05:20:49;;;;;;;1.50;1.23;;;;;;;18.93;50.03;98512.53;4291641;33;20553;-72
2022/06/22 05:23:18;;;;;;;2.10;1.45;;;;;;;19.03;50.53;98525.47;4303942;33;20119;-72
2022/06/22 05:25:47;;;;;;;1.75;1.30;;;;;;;19.35;49.92;98531.09;4303388;33;20510;-73
2022/06/22 05:28:18;;;;;;;1.30;1.20;;;;;;;19.23;48.82;98537.97;4291705;33;20139;-72
2022/06/22 05:30:50;;;;;;;2.53;1.40;;;;;;;19.28;49.37;98535.56;4291019;33;20454;-72
2022/06/22 05:33:21;;;;;;;2.30;1.10;;;;;;;19.39;48.75;98531.50;4303724;33;20100;-72
2022/06/22 05:35:53;;;;;;;1.52;1.20;;;;;;;19.46;48.77;98532.34;4303562;33;20084;-72
2022/06/22 05:38:22;;;;;;;3.97;1.40;;;;;;;19.66;48.57;98533.19;4303531;33;20183;-72
2022/06/22 05:40:50;;;;;;;1.40;1.30;;;;;;;19.72;47.93;98520.13;4303464;33;20096;-72
2022/06/22 05:43:17;;;;;;;2.95;1.20;;;;;;;19.88;48.36;98529.59;4303343;33;20101;-71
2022/06/22 05:45:47;;;;;;;3.00;1.42;;;;;;;19.97;47.21;98534.50;4291179;33;20140;-72
2022/06/22 05:48:19;;;;;;;1.55;1.10;;;;;;;19.97;47.42;98534.50;4303352;33;20096;-72
2022/06/22 05:51:00;;;;;;;4.37;1.48;;;;;;;20.10;47.18;98531.03;4303435;33;20108;-72
2022/06/22 05:53:59;;;;;;;1.50;1.02;;;;;;;20.15;46.98;98531.25;4349883;33;20083;-72
2022/06/22 05:56:35;;;;;;;3.33;1.37;;;;;;;20.53;47.04;98529.75;4336323;33;20096;-72
2022/06/22 05:59:25;;;;;;;1.80;1.30;;;;;;;20.26;47.05;98537.78;4335867;33;20126;-72
2022/06/22 06:02:09;;;;;;;1.75;1.20;;;;;;;20.52;46.91;98538.78;4317799;33;20496;-72
2022/06/22 06:04:40;;;;;;;5.80;1.70;;;;;;;20.42;47.71;98549.84;4317932;33;20100;-72
2022/06/22 06:07:14;;;;;;;1.73;1.30;;;;;;;20.42;48.03;98547.16;4317485;33;20111;-72
2022/06/22 06:13:29;;;;;;;4.25;1.60;;;;;;;20.32;48.57;98550.25;4317412;33;20578;-72
2022/06/22 06:15:59;;;;;;;2.62;1.50;;;;;;;20.50;48.19;98549.62;4317359;33;20502;-72
2022/06/22 06:18:36;;;;;;;8.80;1.62;;;;;;;20.65;48.38;98546.78;4317630;33;20641;-72
2022/06/22 06:21:09;;;;;;;3.65;1.60;;;;;;;20.80;48.32;98554.50;4317732;33;20454;-72
2022/06/22 06:23:42;;;;;;;2.75;2.05;;;;;;;20.99;47.22;98539.50;4317727;33;20535;-72
2022/06/22 06:29:13;;;;;;;3.35;1.73;;;;;;;20.74;48.02;98550.84;4303064;33;20528;-72
2022/06/22 06:32:31;;;;;;;1.73;1.60;;;;;;;20.85;48.14;98538.75;4291109;33;20131;-72
2022/06/22 06:35:17;;;;;;;5.37;1.65;;;;;;;21.02;47.05;98532.97;4273916;33;20466;-71
2022/06/22 06:38:09;;;;;;;1.55;1.33;;;;;;;21.30;47.19;98521.94;4274127;33;20127;-72
2022/06/22 06:41:01;;;;;;;6.45;1.50;;;;;;;21.48;46.70;98521.25;4276705;33;20439;-72
2022/06/22 06:43:38;;;;;;;1.48;1.15;;;;;;;21.66;46.51;98520.56;4277203;33;20144;-70
2022/06/22 06:46:14;;;;;;;2.85;1.10;;;;;;;21.72;44.74;98529.56;4288613;33;20526;-71
2022/06/22 06:48:45;;;;;;;1.95;1.20;;;;;;;21.67;44.40;98538.19;4288708;33;20088;-71
2022/06/22 06:51:14;;;;;;;2.03;1.37;;;;;;;21.25;46.13;98527.12;4276523;33;20085;-70
2022/06/22 06:53:47;;;;;;;2.97;1.50;;;;;;;21.28;45.66;98524.03;4288260;33;20318;-71
2022/06/22 06:56:42;;;;;;;1.80;1.45;;;;;;;21.38;45.78;98535.03;4288179;33;20164;-70
2022/06/22 06:59:14;;;;;;;2.58;1.40;;;;;;;21.10;46.14;98540.69;4276435;33;20085;-70
2022/06/22 07:01:44;;;;;;;2.10;1.30;;;;;;;21.09;46.90;98539.88;4288475;33;20537;-70
2022/06/22 07:04:23;;;;;;;2.67;1.27;;;;;;;21.00;46.20;98549.16;4288555;33;20101;-71
2022/06/22 07:06:52;;;;;;;2.22;1.10;;;;;;;21.21;45.76;98531.22;4341244;33;20596;-71
2022/06/22 07:09:26;;;;;;;1.48;1.10;;;;;;;21.61;44.72;98536.38;4335302;33;20083;-71
2022/06/22 07:12:09;;;;;;;2.92;0.90;;;;;;;21.69;43.84;98521.97;4335718;33;20138;-71
2022/06/22 07:14:45;;;;;;;4.78;1.08;;;;;;;21.79;40.44;98509.81;4335348;33;20446;-72
2022/06/22 07:17:17;;;;;;;1.45;1.10;;;;;;;21.58;41.13;98507.50;4348780;33;20463;-72
2022/06/22 07:19:50;;;;;;;4.65;1.05;;;;;;;22.02;42.42;98516.41;4335327;33;20106;-72
2022/06/22 07:22:17;;;;;;;2.70;1.42;;;;;;;21.88;42.48;98512.22;4335654;33;20087;-72
2022/06/22 07:24:49;;;;;;;1.23;0.85;;;;;;;22.03;42.12;98502.03;4348666;33;20442;-71
2022/06/22 07:27:33;;;;;;;2.67;1.00;;;;;;;22.06;39.78;98500.78;4335402;33;20095;-70
2022/06/22 07:30:05;;;;;;;2.72;1.25;;;;;;;22.18;38.49;98512.38;4335633;33;20083;-70
2022/06/22 07:36:15;;;;;;;6.18;1.45;;;;;;;22.25;40.70;98514.97;4348170;33;20117;-69
2022/06/22 07:39:28;;;;;;;5.78;1.30;;;;;;;22.08;40.10;98525.41;4348310;33;20132;-70
2022/06/22 07:41:55;;;;;;;3.70;1.30;;;;;;;22.41;38.77;98519.78;4290299;33;20108;-70
2022/06/22 07:44:26;;;;;;;0.65;0.65;;;;;;;22.79;38.82;98510.78;4302181;33;20096;-70
2022/06/22 07:47:15;;;;;;;2.20;1.17;;;;;;;22.76;37.98;98521.09;4302290;33;20162;-70
2022/06/22 07:49:47;;;;;;;2.20;0.75;;;;;;;21.82;39.00;98521.06;4302430;33;20124;-70
2022/06/22 07:56:03;;;;;;;2.47;1.15;;;;;;;22.21;37.68;98524.44;4304192;33;20548;-70
2022/06/22 07:58:42;;;;;;;1.08;0.77;;;;;;;22.36;38.94;98511.59;4303789;33;20112;-70
2022/06/22 08:01:11;;;;;;;2.72;1.10;;;;;;;22.55;38.25;98520.47;4292335;33;20100;-71
2022/06/22 08:03:43;;;;;;;5.00;1.17;;;;;;;22.72;39.79;98523.37;4303570;33;20309;-70
2022/06/22 08:06:15;;;;;;;4.20;1.00;;;;;;;22.92;40.25;98508.97;4291785;33;20439;-70
2022/06/22 08:08:46;;;;;;;1.98;1.08;;;;;;;22.87;39.65;98509.66;4303721;33;20153;-70
2022/06/22 08:11:36;;;;;;;2.08;1.45;;;;;;;22.92;38.91;98507.16;4303853;33;20567;-71
2022/06/22 08:14:32;;;;;;;4.60;0.98;;;;;;;22.85;39.38;98503.72;4303520;33;20088;-70
2022/06/22 08:17:02;;;;;;;8.50;1.08;;;;;;;22.57;38.30;98494.34;4330611;33;20136;-70
2022/06/22 08:22:48;;;;;;;6.72;1.20;;;;;;;22.80;38.00;98509.75;4333109;33;20639;-70
2022/06/22 08:25:18;;;;;;;3.08;1.10;;;;;;;22.87;39.28;98502.44;4332722;33;20114;-70
2022/06/22 08:27:45;;;;;;;19.40;1.30;;;;;;;22.89;38.17;98496.88;4332944;33;20092;-70
2022/06/22 08:30:14;;;;;;;3.00;1.15;;;;;;;22.90;37.45;98501.19;4332905;33;20127;-69
2022/06/22 08:32:55;;;;;;;4.45;1.40;;;;;;;22.89;39.27;98488.88;4333122;33;20236;-70
2022/06/22 08:35:43;;;;;;;4.80;1.00;;;;;;;22.76;37.42;98499.72;4329216;33;20087;-70
2022/06/22 08:38:21;;;;;;;4.53;0.90;;;;;;;22.80;37.01;98493.72;4350052;33;20451;-70
2022/06/22 08:44:37;;;;;;;3.85;0.55;;;;;;;23.01;35.99;98503.12;4350083;33;20117;-70
2022/06/22 08:47:13;;;;;;;1.83;0.60;;;;;;;23.06;33.53;98496.28;4349821;33;20518;-70
2022/06/22 08:50:16;;;;;;;2.42;0.80;;;;;;;23.16;35.90;98504.59;4349873;33;20092;-69
2022/06/22 08:53:09;;;;;;;1.30;0.77;;;;;;;23.10;32.97;98498.28;4303458;33;20147;-70
2022/06/22 08:59:33;;;;;;;9.77;0.98;;;;;;;23.13;32.86;98511.22;4303295;33;20107;-70
2022/06/22 09:02:29;;;;;;;7.55;1.27;;;;;;;23.45;32.90;98513.69;4303193;33;20195;-71
2022/06/22 09:05:22;;;;;;;2.95;0.82;;;;;;;23.52;34.44;98505.56;4302727;33;20100;-72
2022/06/22 09:11:25;;;;;;;16.35;1.85;;;;;;;23.35;35.00;98505.41;4300844;33;20111;-72
2022/06/22 09:18:02;;;;;;;3.47;1.20;;;;;;;23.68;35.68;98515.63;4299411;33;92802;-72
2022/06/22 09:24:06;;;;;;;2.70;1.00;;;;;;;23.93;35.16;98501.25;4302180;33;20198;-72
2022/06/22 09:26:37;;;;;;;3.70;1.05;;;;;;;23.77;34.27;98496.53;4302105;33;20089;-71
2022/06/22 09:29:42;;;;;;;11.02;1.08;;;;;;;24.06;34.12;98494.91;4309972;33;20415;-71
2022/06/22 09:32:32;;;;;;;4.62;1.00;;;;;;;24.19;33.33;98465.19;4331340;33;20179;-72
2022/06/22 09:35:24;;;;;;;7.37;1.35;;;;;;;24.43;33.59;98476.72;4319382;33;20449;-72
2022/06/22 09:37:54;;;;;;;2.22;0.90;;;;;;;24.33;32.76;98478.34;4331176;33;20446;-72
2022/06/22 09:40:24;;;;;;;6.93;0.85;;;;;;;24.17;32.87;98463.81;4348168;33;20091;-72
2022/06/22 09:43:11;;;;;;;0.70;0.68;;;;;;;24.24;34.19;98459.97;4348272;33;20095;-72
2022/06/22 09:45:53;;;;;;;1.42;0.85;;;;;;;24.47;29.70;98471.72;4348388;33;20075;-72
2022/06/22 09:48:31;;;;;;;1.90;0.80;;;;;;;24.86;31.64;98471.19;4348214;33;20110;-71
2022/06/22 09:51:01;;;;;;;1.50;0.88;;;;;;;25.10;31.87;98471.91;4334978;33;20087;-71
2022/06/22 09:53:28;;;;;;;3.97;0.90;;;;;;;24.89;32.52;98481.44;4348000;33;20095;-71
2022/06/22 09:56:19;;;;;;;2.10;0.90;;;;;;;24.66;32.83;98487.66;4347982;33;20083;-71
2022/06/22 09:58:54;;;;;;;2.50;0.95;;;;;;;24.53;32.94;98481.47;4347923;33;20087;-71
2022/06/22 10:01:38;;;;;;;6.05;1.20;;;;;;;24.68;31.75;98478.34;4348125;33;20099;-71
2022/06/22 10:04:35;;;;;;;1.83;1.10;;;;;;;24.61;32.52;98486.50;4335023;33;20098;-71
2022/06/22 10:07:25;;;;;;;2.62;0.80;;;;;;;24.61;31.43;98470.44;4301948;33;20167;-71
2022/06/22 10:09:55;;;;;;;1.10;0.70;;;;;;;24.75;31.86;98484.37;4302029;33;20166;-72
2022/06/22 10:12:37;;;;;;;2.58;0.70;;;;;;;24.91;31.93;98482.81;4302166;33;20531;-71
2022/06/22 10:15:22;;;;;;;1.08;0.80;;;;;;;24.77;30.57;98481.47;4302199;33;20096;-70
2022/06/22 10:21:48;;;;;;;1.75;0.73;;;;;;;25.24;31.19;98475.13;4302054;33;20111;-71
2022/06/22 10:24:44;;;;;;;0.80;0.62;;;;;;;25.46;30.28;98480.66;4301903;33;20169;-70
2022/06/22 10:27:38;;;;;;;1.67;0.80;;;;;;;25.32;30.87;98488.19;4301446;33;20120;-71
2022/06/22 10:33:51;;;;;;;1.77;0.88;;;;;;;25.60;30.18;98482.00;4301554;33;20144;-71
2022/06/22 10:36:28;;;;;;;1.40;0.70;;;;;;;25.83;30.52;98482.91;4301367;33;20131;-71
2022/06/22 10:39:10;;;;;;;3.00;1.00;;;;;;;25.75;30.52;98485.97;4301796;33;20126;-71
2022/06/22 10:48:20;;;;;;;1.23;0.90;;;;;;;25.94;30.25;98484.69;4346803;33;20171;-71
2022/06/22 10:51:03;;;;;;;1.42;0.65;;;;;;;25.85;29.82;98486.16;4346336;33;20626;-72
2022/06/22 10:56:53;;;;;;;4.32;1.95;;;;;;;25.63;30.17;98489.56;4736513;27;20679;-71
2022/06/22 11:03:17;;;;;;;1.77;1.05;;;;;;;26.05;31.58;98487.56;4376348;32;20225;-71
2022/06/22 11:06:12;;;;;;;5.50;1.15;;;;;;;25.99;30.14;98489.34;4363600;32;20082;-71
2022/06/22 11:08:49;;;;;;;7.22;1.20;;;;;;;26.09;30.91;98481.44;4363517;32;20087;-72
2022/06/22 11:11:51;;;;;;;1.27;1.05;;;;;;;26.32;31.08;98476.94;4363696;32;20088;-70
2022/06/22 11:14:36;;;;;;;1.05;0.88;;;;;;;26.16;31.47;98490.16;4317321;33;20461;-71
2022/06/22 11:20:43;;;;;;;0.93;0.90;;;;;;;26.28;31.43;98470.44;4316772;33;20109;-72
2022/06/22 11:23:12;;;;;;;2.72;1.52;;;;;;;26.83;29.80;98474.13;4316700;33;20128;-72
2022/06/22 11:35:37;;;;;;;1.20;1.00;;;;;;;26.39;31.53;98473.03;4318863;33;20485;-72
2022/06/22 11:38:26;;;;;;;3.28;1.30;;;;;;;26.55;30.67;98471.34;4319283;33;20108;-72
2022/06/22 11:40:56;;;;;;;2.80;1.12;;;;;;;26.86;30.45;98457.50;4318809;33;20092;-71
2022/06/22 11:43:30;;;;;;;1.35;1.00;;;;;;;26.88;31.46;98455.38;4318746;33;20140;-71
2022/06/22 11:50:05;;;;;;;1.40;1.30;;;;;;;26.99;29.64;98451.75;4318714;33;20687;-71
2022/06/22 11:52:49;;;;;;;1.75;1.20;;;;;;;27.11;29.84;98451.59;4364059;32;20083;-72
2022/06/22 11:55:29;;;;;;;1.52;0.95;;;;;;;27.41;30.79;98443.03;4351566;32;20075;-72
2022/06/22 11:58:24;;;;;;;2.10;1.25;;;;;;;27.35;29.60;98438.69;4351465;32;20111;-72
2022/06/22 12:01:13;;;;;;;4.95;1.25;;;;;;;27.17;30.17;98439.81;4364983;32;20099;-72
2022/06/22 12:03:57;;;;;;;2.65;1.37;;;;;;;27.34;29.75;98449.69;4365074;32;20078;-71
2022/06/22 12:07:06;;;;;;;5.97;1.42;;;;;;;27.38;30.95;98432.78;4351863;32;20471;-71
2022/06/22 12:09:58;;;;;;;4.03;1.20;;;;;;;27.65;29.65;98434.66;4303942;33;20170;-71
2022/06/22 12:12:56;;;;;;;4.12;1.20;;;;;;;27.19;31.03;98426.97;4304164;33;20123;-71
2022/06/22 12:15:48;;;;;;;1.92;1.10;;;;;;;27.56;30.78;98425.44;4289459;33;20612;-71
2022/06/22 12:18:34;;;;;;;2.05;1.20;;;;;;;27.30;30.03;98422.47;4289575;33;20096;-72
2022/06/22 12:21:28;;;;;;;4.22;1.50;;;;;;;27.43;30.67;98426.66;4289463;33;20128;-72
2022/06/22 12:24:02;;;;;;;4.97;1.27;;;;;;;27.50;30.49;98426.44;4277768;33;20151;-71
2022/06/22 12:26:43;;;;;;;1.85;1.30;;;;;;;27.37;30.49;98431.16;4289531;33;20093;-71
2022/06/22 12:29:20;;;;;;;7.65;1.48;;;;;;;27.69;29.41;98419.62;4289739;33;20142;-70
2022/06/22 12:31:55;;;;;;;3.90;1.40;;;;;;;27.49;30.40;98432.91;4289649;33;20109;-70
2022/06/22 12:34:43;;;;;;;3.53;1.60;;;;;;;27.55;31.45;98429.97;4279183;33;20160;-71
2022/06/22 12:37:25;;;;;;;2.05;1.20;;;;;;;27.70;30.90;98420.41;4278021;33;20069;-70
2022/06/22 12:39:58;;;;;;;5.32;1.75;;;;;;;28.03;29.93;98413.94;4277535;33;20092;-72
2022/06/22 12:42:50;;;;;;;5.10;1.58;;;;;;;27.58;31.39;98423.28;4277628;33;20605;-72
2022/06/22 12:45:17;;;;;;;5.35;1.20;;;;;;;27.65;31.47;98406.91;4297087;33;20107;-72
2022/06/22 12:48:11;;;;;;;4.95;1.52;;;;;;;28.05;30.76;98406.41;4332982;33;20120;-72
2022/06/22 12:51:12;;;;;;;1.83;1.35;;;;;;;28.03;28.91;98405.84;4333193;33;20455;-72
2022/06/22 12:53:40;;;;;;;2.85;1.52;;;;;;;28.42;29.22;98400.13;4364853;32;20111;-72
2022/06/22 12:56:26;;;;;;;1.40;1.30;;;;;;;28.82;28.64;98387.88;4364784;32;20122;-72
2022/06/22 12:59:13;;;;;;;2.17;1.40;;;;;;;29.09;27.14;98403.06;4351457;32;20109;-73
2022/06/22 13:01:41;;;;;;;2.70;1.17;;;;;;;28.98;29.27;98402.22;4351383;32;20146;-72
2022/06/22 13:04:22;;;;;;;1.62;1.33;;;;;;;28.96;27.61;98398.16;4364637;32;20098;-72
2022/06/22 13:06:54;;;;;;;4.47;1.70;;;;;;;29.13;28.14;98387.13;4351480;32;20158;-73
2022/06/22 13:09:22;;;;;;;4.10;1.30;;;;;;;28.62;27.62;98395.94;4351444;32;20091;-74
2022/06/22 13:11:50;;;;;;;2.65;1.40;;;;;;;28.82;27.17;98395.97;4364588;32;20157;-75
2022/06/22 13:14:21;;;;;;;2.40;1.10;;;;;;;28.74;28.16;98391.13;4364472;32;20096;-73
2022/06/22 13:16:54;;;;;;;3.90;1.20;;;;;;;28.68;27.20;98373.31;4364662;32;20087;-73
2022/06/22 13:19:29;;;;;;;;;;;;;;;28.81;27.97;98378.19;4365145;32;20178;-73
2022/06/22 13:22:02;;;;;;;3.37;1.10;;;;;;;29.19;24.38;98376.09;4364625;32;20014;-72
2022/06/22 13:24:37;;;;;;;3.87;1.20;;;;;;;28.76;25.84;98382.75;4351366;32;20504;-73
2022/06/22 13:27:25;;;;;;;2.03;1.17;;;;;;;28.54;25.69;98382.91;4351523;32;20102;-73
2022/06/22 13:29:58;;;;;;;1.98;1.12;;;;;;;28.54;26.26;98383.75;4351414;32;20605;-73
2022/06/22 13:36:12;;;;;;;1.90;1.37;;;;;;;29.27;26.77;98393.66;4364627;32;20127;-73
2022/06/22 13:39:05;;;;;;;2.53;1.10;;;;;;;29.32;27.67;98387.47;4364723;32;20130;-73
2022/06/22 13:42:27;;;;;;;2.83;1.35;;;;;;;29.45;26.36;98400.41;4351531;32;20117;-73
2022/06/22 13:45:14;;;;;;;2.25;1.25;;;;;;;29.55;26.40;98378.81;4317954;33;20130;-72
2022/06/22 13:47:56;;;;;;;1.80;1.40;;;;;;;30.05;26.10;98380.91;4318281;33;20100;-72
2022/06/22 13:51:01;;;;;;;4.18;1.30;;;;;;;29.99;25.05;98387.41;4318086;33;20108;-73
2022/06/22 13:53:41;;;;;;;1.08;0.90;;;;;;;30.33;24.78;98386.78;4318142;33;20092;-74
2022/06/22 13:56:25;;;;;;;1.52;1.33;;;;;;;30.77;24.09;98380.66;4317799;33;20100;-74
2022/06/22 13:58:54;;;;;;;1.55;1.15;;;;;;;30.80;24.49;98369.28;4317878;33;20246;-73